Nashville, TN (37221)

10:03 AM CDT on August 30, 2015 (GMT -0500)
Horseshoe Bend | | Change Station
CLOSE
Current Station
Personal Weather Station
Location: Nashville, TN
Elevation: 571 ft
Nearby Weather Stations

Elev 571 ft 36.05 °N, 86.93 °W | Updated 4 minutes ago

Mostly Cloudy
Mostly Cloudy
78.8 °F
Feels Like 82 °F
N
2.2
Wind Variable Wind from NNW

Today
High -- | Low -- °F
--% Chance of Precip.
Yesterday
High -- | Low -- °F
Precip. -- in
6:17 AM 7:18 PM
Full, 99% visible
Pressure 30.13 in
Visibility 10.0 miles
Clouds Few 2500 ft
Scattered Clouds 11000 ft
Mostly Cloudy 21000 ft
Heat Index 82 °F
Dew Point 73 °F
Humidity 82%
Rainfall 0.00 in
Snow Depth Not available.
UV 3 out of 12
Pollen 8.00 out of 12
Air Quality Not available.
Flu Activity Not available.
METAR KBNA 301453Z 16005KT 10SM FEW025 SCT110 BKN210 24/19 A3015 RMK AO2 SLP201 T02440194 53008
Pressure 30.13 in
Visibility 10.0 miles
Clouds Few 2500 ft
Scattered Clouds 11000 ft
Mostly Cloudy 21000 ft
Heat Index 82 °F
Dew Point 73 °F
Humidity 82%
Rainfall 0.00 in
Snow Depth Not available.
UV 3 out of 12
Pollen 8.00 out of 12
Air Quality Not available.
Flu Activity Not available.
METAR KBNA 301453Z 16005KT 10SM FEW025 SCT110 BKN210 24/19 A3015 RMK AO2 SLP201 T02440194 53008

10-Day Weather Forecast

×

Almanac

Astronomy

Aug. 30, 2015 Rise Set
Actual Time
Civil Twilight
Nautical Twilight
Astronomical Twilight
Moon
Length of Visible Light
Length of Day
Tomorrow will be .
, % of the Moon is Illuminated

Today's Extremes

State Highs State Lows

Community

WunderPhotos

Upload Photos

1,850,984 photos uploaded!

WunderBlogs® & News

Nearby

Air Quality

  Air Quality AQ Index Pollutant
Not available.

Snow Depth

Station Depth Elevation

Earthquake Activity

City Distance Mag. Time & Date
Minimum magnitude displayed is 2.5.

Coastal Water Temperatures

Place Temperature

Stations

Nearby Weather Stations

Station Location Temp. Windchill Dew Point Humidity Wind Precip. Elev Updated Type